AYN7055 UAAA-UACC
Flight info
| Callsign | AYN7055 |
|---|---|
| Flight time | 1h 27m |
| Altitude | 36000 |
| Route | ETEDA1B ETEDA W333 KRG DCT BEDKA BEDKA1C |
| Aircraft | A320/M-SDE1FGHIJ1RWXYZ/LB1 |
Departure
| Time | 2026-04-28 13:00 |
|---|---|
| Airport | Almaty International Airport (UAAA) |
Arrival
| Time | 2026-04-28 14:27 |
|---|---|
| Airport | Nursultan Nazarbayev International Airport (UACC) |
| Time | Latitude | Longitude | Altitude | Speed | Heading |
|---|---|---|---|---|---|
| 2026-04-28 12:30 | 43.34681 | 77.01304 | 2228 ft | 0 kts | 246° |
| 2026-04-28 12:51 | 43.34684 | 77.01314 | 2228 ft | 3 kts | 245° |
| 2026-04-28 12:52 | 43.34693 | 77.01338 | 2223 ft | 3 kts | 238° |
| 2026-04-28 12:52 | 43.34704 | 77.01361 | 2223 ft | 3 kts | 231° |
| 2026-04-28 12:52 | 43.34717 | 77.01382 | 2224 ft | 3 kts | 218° |
| 2026-04-28 12:52 | 43.34734 | 77.01395 | 2224 ft | 3 kts | 187° |
| 2026-04-28 12:53 | 43.34745 | 77.01395 | 2223 ft | 0 kts | 155° |
| 2026-04-28 12:53 | 43.34746 | 77.01395 | 2223 ft | 0 kts | 155° |
| 2026-04-28 12:56 | 43.34726 | 77.01408 | 2224 ft | 8 kts | 154° |
| 2026-04-28 12:57 | 43.34668 | 77.01446 | 2228 ft | 10 kts | 155° |
| 2026-04-28 12:57 | 43.34598 | 77.01465 | 2226 ft | 11 kts | 172° |
| 2026-04-28 12:57 | 43.34521 | 77.01504 | 2228 ft | 12 kts | 155° |
| 2026-04-28 12:57 | 43.34438 | 77.01557 | 2226 ft | 14 kts | 155° |
| 2026-04-28 12:58 | 43.34345 | 77.01615 | 2225 ft | 15 kts | 155° |
| 2026-04-28 12:58 | 43.34243 | 77.01679 | 2225 ft | 16 kts | 155° |
| 2026-04-28 12:58 | 43.34164 | 77.01777 | 2226 ft | 17 kts | 102° |
| 2026-04-28 12:58 | 43.34195 | 77.01888 | 2226 ft | 0 kts | 56° |
| 2026-04-28 12:59 | 43.34199 | 77.01897 | 2225 ft | 3 kts | 56° |
| 2026-04-28 12:59 | 43.34317 | 77.02135 | 2225 ft | 64 kts | 56° |
| 2026-04-28 12:59 | 43.34682 | 77.02870 | 2226 ft | 120 kts | 56° |
| 2026-04-28 12:59 | 43.35237 | 77.03992 | 2226 ft | 163 kts | 56° |
| 2026-04-28 13:00 | 43.35934 | 77.05393 | 2457 ft | 182 kts | 55° |
| 2026-04-28 13:00 | 43.36658 | 77.06819 | 3091 ft | 182 kts | 54° |
| 2026-04-28 13:00 | 43.37396 | 77.08220 | 3747 ft | 181 kts | 54° |
| 2026-04-28 13:00 | 43.38172 | 77.09690 | 4032 ft | 200 kts | 54° |
| 2026-04-28 13:01 | 43.39016 | 77.11313 | 4319 ft | 220 kts | 54° |
| 2026-04-28 13:01 | 43.39952 | 77.13116 | 4627 ft | 244 kts | 54° |
| 2026-04-28 13:01 | 43.40971 | 77.15070 | 5193 ft | 256 kts | 52° |
| 2026-04-28 13:01 | 43.42359 | 77.16662 | 5788 ft | 269 kts | 21° |
| 2026-04-28 13:02 | 43.44219 | 77.16905 | 6521 ft | 275 kts | 349° |
| 2026-04-28 13:02 | 43.46037 | 77.16037 | 7298 ft | 279 kts | 335° |
| 2026-04-28 13:02 | 43.47763 | 77.14782 | 8087 ft | 282 kts | 331° |
| 2026-04-28 13:02 | 43.49486 | 77.13453 | 8871 ft | 285 kts | 331° |
| 2026-04-28 13:03 | 43.51237 | 77.12129 | 9634 ft | 289 kts | 327° |
| 2026-04-28 13:03 | 43.52751 | 77.10294 | 10330 ft | 293 kts | 309° |
| 2026-04-28 13:03 | 43.53816 | 77.07904 | 11023 ft | 295 kts | 292° |
| 2026-04-28 13:03 | 43.54307 | 77.05163 | 11700 ft | 299 kts | 275° |
| 2026-04-28 13:04 | 43.54462 | 77.02196 | 11857 ft | 322 kts | 273° |
| 2026-04-28 13:04 | 43.54702 | 76.99028 | 11988 ft | 343 kts | 281° |
| 2026-04-28 13:04 | 43.55405 | 76.95806 | 12265 ft | 358 kts | 293° |
| 2026-04-28 13:04 | 43.56616 | 76.92784 | 12838 ft | 363 kts | 305° |
| 2026-04-28 13:05 | 43.58270 | 76.90143 | 13478 ft | 366 kts | 314° |
| 2026-04-28 13:05 | 43.60055 | 76.87616 | 14103 ft | 369 kts | 314° |
| 2026-04-28 13:05 | 43.61849 | 76.85063 | 14679 ft | 371 kts | 314° |
| 2026-04-28 13:05 | 43.63648 | 76.82488 | 15259 ft | 373 kts | 313° |
| 2026-04-28 13:06 | 43.64866 | 76.80739 | 15652 ft | 375 kts | 313° |
| 2026-04-28 13:06 | 43.66676 | 76.78141 | 16233 ft | 377 kts | 313° |
| 2026-04-28 13:06 | 43.68500 | 76.75528 | 16823 ft | 379 kts | 313° |
| 2026-04-28 13:06 | 43.70334 | 76.72898 | 17430 ft | 381 kts | 313° |
| 2026-04-28 13:07 | 43.72179 | 76.70247 | 18049 ft | 383 kts | 313° |
| 2026-04-28 13:07 | 43.74032 | 76.67587 | 18622 ft | 386 kts | 313° |
| 2026-04-28 13:07 | 43.75888 | 76.64892 | 19183 ft | 388 kts | 312° |
| 2026-04-28 13:07 | 43.77718 | 76.62141 | 19741 ft | 390 kts | 311° |
| 2026-04-28 13:08 | 43.79539 | 76.59340 | 20299 ft | 392 kts | 311° |
| 2026-04-28 13:08 | 43.81356 | 76.56516 | 20826 ft | 394 kts | 311° |
| 2026-04-28 13:08 | 43.83186 | 76.53676 | 21332 ft | 396 kts | 311° |
| 2026-04-28 13:08 | 43.85191 | 76.51045 | 21802 ft | 400 kts | 322° |
| 2026-04-28 13:09 | 43.87625 | 76.49149 | 22257 ft | 405 kts | 336° |
| 2026-04-28 13:09 | 43.90359 | 76.48143 | 22704 ft | 411 kts | 350° |
| 2026-04-28 13:09 | 43.93235 | 76.48134 | 23146 ft | 418 kts | 5° |
| 2026-04-28 13:09 | 43.96069 | 76.49169 | 23581 ft | 426 kts | 18° |
| 2026-04-28 13:10 | 43.98829 | 76.50702 | 23929 ft | 429 kts | 18° |
| 2026-04-28 13:10 | 44.01606 | 76.52255 | 24268 ft | 431 kts | 18° |
| 2026-04-28 13:10 | 44.04388 | 76.53815 | 24599 ft | 434 kts | 18° |
| 2026-04-28 13:10 | 44.07198 | 76.55393 | 24922 ft | 436 kts | 18° |
| 2026-04-28 13:11 | 44.10019 | 76.56969 | 25246 ft | 438 kts | 17° |
| 2026-04-28 13:11 | 44.12934 | 76.58137 | 25556 ft | 435 kts | 7° |
| 2026-04-28 13:11 | 44.15930 | 76.58610 | 25869 ft | 433 kts | 358° |
| 2026-04-28 13:11 | 44.18924 | 76.58399 | 26191 ft | 430 kts | 348° |
| 2026-04-28 13:12 | 44.21852 | 76.57563 | 26523 ft | 429 kts | 343° |
| 2026-04-28 13:12 | 44.24764 | 76.56583 | 26846 ft | 432 kts | 343° |
| 2026-04-28 13:12 | 44.27692 | 76.55605 | 27173 ft | 433 kts | 343° |
| 2026-04-28 13:12 | 44.30634 | 76.54625 | 27496 ft | 435 kts | 343° |
| 2026-04-28 13:13 | 44.33566 | 76.53607 | 27935 ft | 432 kts | 339° |
| 2026-04-28 13:13 | 44.36363 | 76.52144 | 28406 ft | 428 kts | 334° |
| 2026-04-28 13:13 | 44.39105 | 76.50537 | 28884 ft | 427 kts | 334° |
| 2026-04-28 13:13 | 44.41837 | 76.48933 | 29363 ft | 425 kts | 334° |
| 2026-04-28 13:14 | 44.44560 | 76.47336 | 29855 ft | 424 kts | 334° |
| 2026-04-28 13:14 | 44.47276 | 76.45748 | 30303 ft | 423 kts | 333° |
| 2026-04-28 13:14 | 44.49986 | 76.44162 | 30697 ft | 422 kts | 333° |
| 2026-04-28 13:14 | 44.52689 | 76.42577 | 31084 ft | 421 kts | 333° |
| 2026-04-28 13:15 | 44.55389 | 76.40996 | 31464 ft | 420 kts | 333° |
| 2026-04-28 13:15 | 44.58090 | 76.39413 | 31848 ft | 420 kts | 333° |
| 2026-04-28 13:15 | 44.60781 | 76.37833 | 32232 ft | 419 kts | 333° |
| 2026-04-28 13:15 | 44.63472 | 76.36247 | 32621 ft | 419 kts | 332° |
| 2026-04-28 13:16 | 44.66151 | 76.34665 | 33010 ft | 419 kts | 332° |
| 2026-04-28 13:16 | 44.68836 | 76.33082 | 33390 ft | 418 kts | 332° |
| 2026-04-28 13:16 | 44.71520 | 76.31498 | 33777 ft | 418 kts | 332° |
| 2026-04-28 13:16 | 44.74197 | 76.29919 | 34146 ft | 417 kts | 332° |
| 2026-04-28 13:17 | 44.76877 | 76.28340 | 34446 ft | 417 kts | 332° |
| 2026-04-28 13:17 | 44.79552 | 76.26756 | 34743 ft | 417 kts | 332° |
| 2026-04-28 13:17 | 44.82224 | 76.25169 | 35030 ft | 417 kts | 332° |
| 2026-04-28 13:17 | 44.84895 | 76.23582 | 35300 ft | 417 kts | 332° |
| 2026-04-28 13:18 | 44.87564 | 76.21998 | 35568 ft | 417 kts | 332° |
| 2026-04-28 13:18 | 44.90239 | 76.20407 | 35829 ft | 417 kts | 332° |
| 2026-04-28 13:18 | 44.92915 | 76.18815 | 36013 ft | 418 kts | 333° |
| 2026-04-28 13:19 | 44.98335 | 76.15593 | 36057 ft | 428 kts | 333° |
| 2026-04-28 13:19 | 45.03830 | 76.12306 | 36056 ft | 430 kts | 333° |
| 2026-04-28 13:20 | 45.09384 | 76.08988 | 36065 ft | 430 kts | 333° |
| 2026-04-28 13:20 | 45.14855 | 76.05709 | 36063 ft | 430 kts | 333° |
| 2026-04-28 13:21 | 45.18352 | 76.03606 | 36075 ft | 430 kts | 333° |
| 2026-04-28 13:21 | 45.23518 | 76.00483 | 36056 ft | 426 kts | 333° |
| 2026-04-28 13:22 | 45.28973 | 75.97186 | 36057 ft | 427 kts | 333° |
| 2026-04-28 13:22 | 45.34440 | 75.93891 | 36063 ft | 427 kts | 333° |
| 2026-04-28 13:23 | 45.39919 | 75.90591 | 36073 ft | 428 kts | 333° |
| 2026-04-28 13:23 | 45.45397 | 75.87272 | 36084 ft | 428 kts | 333° |
| 2026-04-28 13:24 | 45.50872 | 75.83938 | 36091 ft | 428 kts | 333° |
| 2026-04-28 13:24 | 45.56348 | 75.80603 | 36097 ft | 428 kts | 333° |
| 2026-04-28 13:25 | 45.61812 | 75.77264 | 36103 ft | 427 kts | 333° |
| 2026-04-28 13:25 | 45.67277 | 75.73922 | 36107 ft | 427 kts | 333° |
| 2026-04-28 13:26 | 45.72736 | 75.70568 | 36108 ft | 427 kts | 333° |
| 2026-04-28 13:26 | 45.78190 | 75.67214 | 36113 ft | 426 kts | 333° |
| 2026-04-28 13:27 | 45.83643 | 75.63856 | 36118 ft | 426 kts | 333° |
| 2026-04-28 13:27 | 45.89092 | 75.60507 | 36117 ft | 426 kts | 333° |
| 2026-04-28 13:28 | 45.94536 | 75.57150 | 36118 ft | 426 kts | 333° |
| 2026-04-28 13:28 | 45.99969 | 75.53778 | 36119 ft | 425 kts | 333° |
| 2026-04-28 13:29 | 46.05401 | 75.50394 | 36126 ft | 425 kts | 333° |
| 2026-04-28 13:29 | 46.10838 | 75.47021 | 36124 ft | 425 kts | 333° |
| 2026-04-28 13:30 | 46.16269 | 75.43639 | 36127 ft | 425 kts | 333° |
| 2026-04-28 13:30 | 46.21693 | 75.40244 | 36133 ft | 425 kts | 333° |
| 2026-04-28 13:31 | 46.29843 | 75.35165 | 36131 ft | 425 kts | 333° |
| 2026-04-28 13:31 | 46.35273 | 75.31795 | 36136 ft | 425 kts | 334° |
| 2026-04-28 13:32 | 46.40709 | 75.28409 | 36137 ft | 425 kts | 333° |
| 2026-04-28 13:32 | 46.46140 | 75.25015 | 36140 ft | 425 kts | 334° |
| 2026-04-28 13:33 | 46.51568 | 75.21618 | 36141 ft | 425 kts | 334° |
| 2026-04-28 13:33 | 46.56995 | 75.18202 | 36144 ft | 425 kts | 333° |
| 2026-04-28 13:34 | 46.62418 | 75.14785 | 36149 ft | 425 kts | 334° |
| 2026-04-28 13:34 | 46.67841 | 75.11364 | 36151 ft | 425 kts | 334° |
| 2026-04-28 13:35 | 46.73267 | 75.07935 | 36155 ft | 425 kts | 334° |
| 2026-04-28 13:35 | 46.78693 | 75.04498 | 36157 ft | 425 kts | 334° |
| 2026-04-28 13:36 | 46.84114 | 75.01054 | 36156 ft | 425 kts | 334° |
| 2026-04-28 13:36 | 46.89544 | 74.97627 | 36157 ft | 425 kts | 335° |
| 2026-04-28 13:37 | 46.95074 | 74.94507 | 36154 ft | 426 kts | 337° |
| 2026-04-28 13:37 | 47.00648 | 74.91556 | 36154 ft | 426 kts | 337° |
| 2026-04-28 13:38 | 47.06212 | 74.88548 | 36158 ft | 426 kts | 337° |
| 2026-04-28 13:38 | 47.11760 | 74.85477 | 36162 ft | 426 kts | 336° |
| 2026-04-28 13:39 | 47.17304 | 74.82388 | 36170 ft | 426 kts | 336° |
| 2026-04-28 13:39 | 47.22844 | 74.79292 | 36179 ft | 426 kts | 336° |
| 2026-04-28 13:40 | 47.28386 | 74.76191 | 36182 ft | 426 kts | 336° |
| 2026-04-28 13:40 | 47.33930 | 74.73100 | 36184 ft | 426 kts | 337° |
| 2026-04-28 13:41 | 47.39478 | 74.70003 | 36187 ft | 426 kts | 337° |
| 2026-04-28 13:41 | 47.45025 | 74.66900 | 36193 ft | 426 kts | 337° |
| 2026-04-28 13:42 | 47.50572 | 74.63778 | 36194 ft | 426 kts | 337° |
| 2026-04-28 13:42 | 47.56112 | 74.60653 | 36197 ft | 426 kts | 337° |
| 2026-04-28 13:43 | 47.61667 | 74.57534 | 36199 ft | 427 kts | 337° |
| 2026-04-28 13:43 | 47.67220 | 74.54422 | 36200 ft | 427 kts | 337° |
| 2026-04-28 13:44 | 47.71870 | 74.51810 | 36204 ft | 427 kts | 337° |
| 2026-04-28 13:44 | 47.77424 | 74.48687 | 36206 ft | 427 kts | 337° |
| 2026-04-28 13:45 | 47.82979 | 74.45550 | 36211 ft | 427 kts | 337° |
| 2026-04-28 13:45 | 47.88535 | 74.42407 | 36212 ft | 427 kts | 337° |
| 2026-04-28 13:46 | 47.94086 | 74.39257 | 36213 ft | 427 kts | 337° |
| 2026-04-28 13:46 | 47.99641 | 74.36089 | 36218 ft | 427 kts | 337° |
| 2026-04-28 13:47 | 48.05195 | 74.32927 | 36219 ft | 427 kts | 337° |
| 2026-04-28 13:47 | 48.10753 | 74.29752 | 36224 ft | 428 kts | 337° |
| 2026-04-28 13:48 | 48.16313 | 74.26570 | 36224 ft | 428 kts | 337° |
| 2026-04-28 13:48 | 48.21880 | 74.23417 | 36227 ft | 428 kts | 338° |
| 2026-04-28 13:49 | 48.27450 | 74.20263 | 36230 ft | 428 kts | 338° |
| 2026-04-28 13:49 | 48.33020 | 74.17106 | 36231 ft | 428 kts | 338° |
| 2026-04-28 13:50 | 48.38591 | 74.13935 | 36231 ft | 428 kts | 338° |
| 2026-04-28 13:50 | 48.44163 | 74.10754 | 36232 ft | 428 kts | 338° |
| 2026-04-28 13:51 | 48.49734 | 74.07558 | 36238 ft | 428 kts | 338° |
| 2026-04-28 13:51 | 48.55308 | 74.04358 | 36239 ft | 428 kts | 338° |
| 2026-04-28 13:52 | 48.60881 | 74.01151 | 36240 ft | 429 kts | 338° |
| 2026-04-28 13:52 | 48.66451 | 73.97943 | 36244 ft | 429 kts | 338° |
| 2026-04-28 13:53 | 48.72025 | 73.94719 | 36248 ft | 429 kts | 338° |
| 2026-04-28 13:53 | 48.77601 | 73.91489 | 36252 ft | 429 kts | 338° |
| 2026-04-28 13:54 | 48.83174 | 73.88248 | 36252 ft | 429 kts | 338° |
| 2026-04-28 13:54 | 48.88745 | 73.85002 | 36257 ft | 429 kts | 337° |
| 2026-04-28 13:55 | 48.94325 | 73.81738 | 36262 ft | 429 kts | 338° |
| 2026-04-28 13:55 | 48.99901 | 73.78480 | 36260 ft | 429 kts | 338° |
| 2026-04-28 13:56 | 49.05475 | 73.75210 | 36260 ft | 429 kts | 337° |
| 2026-04-28 13:56 | 49.11046 | 73.71911 | 36263 ft | 429 kts | 337° |
| 2026-04-28 13:57 | 49.16623 | 73.68611 | 36267 ft | 430 kts | 337° |
| 2026-04-28 13:57 | 49.22200 | 73.65310 | 36271 ft | 430 kts | 337° |
| 2026-04-28 13:58 | 49.27770 | 73.61995 | 36271 ft | 430 kts | 337° |
| 2026-04-28 13:58 | 49.33342 | 73.58667 | 36275 ft | 430 kts | 337° |
| 2026-04-28 13:59 | 49.38917 | 73.55334 | 36276 ft | 430 kts | 337° |
| 2026-04-28 13:59 | 49.44490 | 73.51990 | 36274 ft | 430 kts | 337° |
| 2026-04-28 14:00 | 49.50061 | 73.48640 | 36271 ft | 430 kts | 337° |
| 2026-04-28 14:00 | 49.55638 | 73.45282 | 36268 ft | 430 kts | 337° |
| 2026-04-28 14:01 | 49.61214 | 73.41919 | 36263 ft | 430 kts | 337° |
| 2026-04-28 14:01 | 49.66683 | 73.38230 | 36262 ft | 429 kts | 327° |
| 2026-04-28 14:02 | 49.71189 | 73.32304 | 36258 ft | 427 kts | 309° |
| 2026-04-28 14:02 | 49.74781 | 73.25000 | 36256 ft | 427 kts | 307° |
| 2026-04-28 14:03 | 49.78365 | 73.17665 | 36266 ft | 427 kts | 307° |
| 2026-04-28 14:03 | 49.81977 | 73.10267 | 35848 ft | 436 kts | 307° |
| 2026-04-28 14:04 | 49.83786 | 73.06544 | 35408 ft | 430 kts | 307° |
| 2026-04-28 14:04 | 49.85572 | 73.02863 | 34970 ft | 425 kts | 307° |
| 2026-04-28 14:04 | 49.87337 | 72.99217 | 34109 ft | 424 kts | 306° |
| 2026-04-28 14:04 | 49.89130 | 72.95514 | 33659 ft | 437 kts | 306° |
| 2026-04-28 14:05 | 49.90992 | 72.91664 | 33215 ft | 454 kts | 306° |
| 2026-04-28 14:05 | 49.92897 | 72.87720 | 32764 ft | 459 kts | 306° |
| 2026-04-28 14:05 | 49.94809 | 72.83749 | 32313 ft | 458 kts | 306° |
| 2026-04-28 14:05 | 49.96710 | 72.79788 | 31862 ft | 456 kts | 306° |
| 2026-04-28 14:06 | 49.98598 | 72.75854 | 31411 ft | 453 kts | 306° |
| 2026-04-28 14:06 | 50.00474 | 72.71943 | 30962 ft | 450 kts | 306° |
| 2026-04-28 14:06 | 50.02336 | 72.68055 | 30510 ft | 447 kts | 306° |
| 2026-04-28 14:06 | 50.04184 | 72.64189 | 30062 ft | 443 kts | 306° |
| 2026-04-28 14:07 | 50.06014 | 72.60348 | 29610 ft | 440 kts | 306° |
| 2026-04-28 14:07 | 50.07830 | 72.56531 | 29160 ft | 437 kts | 306° |
| 2026-04-28 14:07 | 50.09633 | 72.52744 | 28711 ft | 434 kts | 306° |
| 2026-04-28 14:07 | 50.11423 | 72.48982 | 28259 ft | 431 kts | 306° |
| 2026-04-28 14:08 | 50.13200 | 72.45240 | 27809 ft | 428 kts | 306° |
| 2026-04-28 14:08 | 50.14962 | 72.41525 | 27415 ft | 425 kts | 306° |
| 2026-04-28 14:08 | 50.16714 | 72.37826 | 27041 ft | 423 kts | 306° |
| 2026-04-28 14:08 | 50.18453 | 72.34146 | 26661 ft | 420 kts | 306° |
| 2026-04-28 14:09 | 50.20179 | 72.30482 | 26288 ft | 418 kts | 306° |
| 2026-04-28 14:09 | 50.21895 | 72.26840 | 25914 ft | 415 kts | 306° |
| 2026-04-28 14:09 | 50.23611 | 72.23229 | 25536 ft | 413 kts | 307° |
| 2026-04-28 14:09 | 50.25346 | 72.19665 | 25163 ft | 410 kts | 307° |
| 2026-04-28 14:10 | 50.27084 | 72.16147 | 24794 ft | 408 kts | 307° |
| 2026-04-28 14:10 | 50.28818 | 72.12653 | 24412 ft | 406 kts | 307° |
| 2026-04-28 14:10 | 50.30542 | 72.09171 | 23998 ft | 403 kts | 307° |
| 2026-04-28 14:10 | 50.32245 | 72.05707 | 23548 ft | 401 kts | 307° |
| 2026-04-28 14:11 | 50.33936 | 72.02250 | 23097 ft | 399 kts | 307° |
| 2026-04-28 14:11 | 50.35614 | 71.98808 | 22648 ft | 397 kts | 307° |
| 2026-04-28 14:11 | 50.37285 | 71.95378 | 22189 ft | 395 kts | 307° |
| 2026-04-28 14:11 | 50.38943 | 71.91966 | 21744 ft | 393 kts | 307° |
| 2026-04-28 14:12 | 50.40592 | 71.88566 | 21296 ft | 390 kts | 307° |
| 2026-04-28 14:12 | 50.42230 | 71.85189 | 20800 ft | 389 kts | 307° |
| 2026-04-28 14:12 | 50.43646 | 71.81609 | 20304 ft | 386 kts | 291° |
| 2026-04-28 14:12 | 50.44214 | 71.77534 | 19839 ft | 384 kts | 272° |
| 2026-04-28 14:13 | 50.43827 | 71.73411 | 19371 ft | 384 kts | 252° |
| 2026-04-28 14:13 | 50.42537 | 71.69767 | 18949 ft | 383 kts | 232° |
| 2026-04-28 14:13 | 50.40829 | 71.66579 | 18526 ft | 379 kts | 234° |
| 2026-04-28 14:13 | 50.39489 | 71.63064 | 18045 ft | 373 kts | 247° |
| 2026-04-28 14:14 | 50.38585 | 71.59226 | 17560 ft | 369 kts | 252° |
| 2026-04-28 14:14 | 50.37775 | 71.55445 | 17093 ft | 365 kts | 252° |
| 2026-04-28 14:14 | 50.37044 | 71.51663 | 16629 ft | 361 kts | 259° |
| 2026-04-28 14:14 | 50.36778 | 71.47782 | 16176 ft | 357 kts | 271° |
| 2026-04-28 14:15 | 50.37102 | 71.43969 | 15721 ft | 353 kts | 289° |
| 2026-04-28 14:15 | 50.38271 | 71.40699 | 15281 ft | 349 kts | 311° |
| 2026-04-28 14:15 | 50.40186 | 71.38340 | 14794 ft | 347 kts | 334° |
| 2026-04-28 14:15 | 50.42498 | 71.37346 | 14319 ft | 346 kts | 357° |
| 2026-04-28 14:16 | 50.44869 | 71.37785 | 13830 ft | 344 kts | 15° |
| 2026-04-28 14:16 | 50.47172 | 71.38804 | 13308 ft | 344 kts | 16° |
| 2026-04-28 14:16 | 50.49463 | 71.39845 | 12815 ft | 342 kts | 17° |
| 2026-04-28 14:16 | 50.51742 | 71.40887 | 12368 ft | 340 kts | 17° |
| 2026-04-28 14:17 | 50.54006 | 71.41923 | 11916 ft | 337 kts | 17° |
| 2026-04-28 14:17 | 50.56230 | 71.42937 | 11474 ft | 330 kts | 17° |
| 2026-04-28 14:17 | 50.58431 | 71.43829 | 11026 ft | 323 kts | 7° |
| 2026-04-28 14:17 | 50.60643 | 71.43642 | 10598 ft | 317 kts | 344° |
| 2026-04-28 14:18 | 50.62604 | 71.42175 | 10180 ft | 310 kts | 321° |
| 2026-04-28 14:18 | 50.64059 | 71.39756 | 9757 ft | 302 kts | 305° |
| 2026-04-28 14:18 | 50.65304 | 71.37124 | 9359 ft | 296 kts | 305° |
| 2026-04-28 14:18 | 50.66538 | 71.34568 | 8995 ft | 290 kts | 310° |
| 2026-04-28 14:19 | 50.68016 | 71.32450 | 8632 ft | 286 kts | 325° |
| 2026-04-28 14:19 | 50.69732 | 71.30923 | 8284 ft | 281 kts | 332° |
| 2026-04-28 14:19 | 50.71455 | 71.29525 | 7936 ft | 277 kts | 332° |
| 2026-04-28 14:19 | 50.73155 | 71.28140 | 7586 ft | 273 kts | 332° |
| 2026-04-28 14:20 | 50.74831 | 71.26766 | 7251 ft | 270 kts | 332° |
| 2026-04-28 14:20 | 50.76485 | 71.25406 | 6911 ft | 266 kts | 332° |
| 2026-04-28 14:20 | 50.77570 | 71.24513 | 6688 ft | 265 kts | 332° |
| 2026-04-28 14:20 | 50.79194 | 71.23175 | 6332 ft | 262 kts | 333° |
| 2026-04-28 14:21 | 50.80795 | 71.21855 | 5976 ft | 258 kts | 334° |
| 2026-04-28 14:21 | 50.82450 | 71.20967 | 5755 ft | 245 kts | 353° |
| 2026-04-28 14:21 | 50.84097 | 71.20915 | 5569 ft | 231 kts | 11° |
| 2026-04-28 14:21 | 50.85605 | 71.21573 | 5348 ft | 220 kts | 28° |
| 2026-04-28 14:22 | 50.86876 | 71.22804 | 5088 ft | 210 kts | 44° |
| 2026-04-28 14:22 | 50.87917 | 71.24374 | 4837 ft | 205 kts | 48° |
| 2026-04-28 14:22 | 50.88925 | 71.25929 | 4558 ft | 201 kts | 48° |
| 2026-04-28 14:22 | 50.89914 | 71.27455 | 4273 ft | 194 kts | 48° |
| 2026-04-28 14:23 | 50.90849 | 71.28900 | 4022 ft | 182 kts | 48° |
| 2026-04-28 14:23 | 50.91723 | 71.30251 | 3783 ft | 169 kts | 49° |
| 2026-04-28 14:23 | 50.92525 | 71.31491 | 3582 ft | 156 kts | 49° |
| 2026-04-28 14:23 | 50.93287 | 71.32674 | 3375 ft | 151 kts | 50° |
| 2026-04-28 14:24 | 50.94031 | 71.33828 | 3171 ft | 148 kts | 49° |
| 2026-04-28 14:24 | 50.94770 | 71.34976 | 2969 ft | 149 kts | 49° |
| 2026-04-28 14:24 | 50.95502 | 71.36114 | 2774 ft | 147 kts | 49° |
| 2026-04-28 14:24 | 50.96234 | 71.37248 | 2564 ft | 147 kts | 50° |
| 2026-04-28 14:25 | 50.96957 | 71.38368 | 2387 ft | 145 kts | 50° |
| 2026-04-28 14:25 | 50.97681 | 71.39494 | 2182 ft | 145 kts | 49° |
| 2026-04-28 14:25 | 50.98403 | 71.40614 | 1993 ft | 147 kts | 48° |
| 2026-04-28 14:25 | 50.99131 | 71.41745 | 1767 ft | 146 kts | 47° |
| 2026-04-28 14:26 | 50.99856 | 71.42865 | 1557 ft | 146 kts | 47° |
| 2026-04-28 14:26 | 51.00577 | 71.43994 | 1357 ft | 145 kts | 47° |
| 2026-04-28 14:26 | 51.01300 | 71.45117 | 1197 ft | 146 kts | 46° |
| 2026-04-28 14:26 | 51.01952 | 71.46139 | 1166 ft | 109 kts | 45° |
| 2026-04-28 14:27 | 51.02369 | 71.46796 | 1167 ft | 60 kts | 45° |
| 2026-04-28 14:27 | 51.02547 | 71.47075 | 1165 ft | 17 kts | 44° |
| 2026-04-28 14:27 | 51.02646 | 71.47094 | 1164 ft | 17 kts | 318° |
| 2026-04-28 14:27 | 51.02723 | 71.46965 | 1162 ft | 15 kts | 301° |
| 2026-04-28 14:28 | 51.02684 | 71.46824 | 1164 ft | 16 kts | 224° |
| 2026-04-28 14:28 | 51.02601 | 71.46695 | 1164 ft | 18 kts | 224° |
| 2026-04-28 14:28 | 51.02507 | 71.46548 | 1164 ft | 20 kts | 224° |
| 2026-04-28 14:28 | 51.02434 | 71.46434 | 1164 ft | 14 kts | 225° |
| 2026-04-28 14:29 | 51.02371 | 71.46336 | 1164 ft | 11 kts | 225° |
| 2026-04-28 14:29 | 51.02367 | 71.46219 | 1163 ft | 12 kts | 303° |
| 2026-04-28 14:29 | 51.02426 | 71.46121 | 1164 ft | 10 kts | 317° |
| 2026-04-28 14:29 | 51.02499 | 71.46089 | 1164 ft | 12 kts | 357° |
| 2026-04-28 14:30 | 51.02550 | 71.46086 | 1164 ft | 6 kts | 358° |
| 2026-04-28 14:30 | 51.02596 | 71.46084 | 1163 ft | 6 kts | 358° |
| 2026-04-28 14:30 | 51.02615 | 71.46083 | 1163 ft | 1 kts | 358° |
| 2026-04-28 14:30 | 51.02616 | 71.46083 | 1163 ft | 0 kts | 358° |